Terminal Aerodrome Forecast
Issued by NWS Cleveland, OH

Home | Current Version | Previous Version | Graphics & Text | Print | Product List | Glossary Off
Versions: 1 2 3 4 5 6 7 8 9 10 11 12 13 14 15 16 17 18

039
FTUS41 KCLE 230857 AAA
TAFTOL
TAF AMD
KTOL 230857Z 2309/2406 VRB03KT P6SM SKC
      TEMPO 2310/2313 4SM BR
     FM231300 28005KT P6SM SKC=

USA.gov is the U.S. government's official web portal to all federal, state and local government web resources and services.